createdAt,value
2019-02-25T00:04:16.094Z,5.92
2019-02-25T00:29:28.758Z,8.40
2019-02-25T01:40:50.773Z,9.20
2019-02-25T01:46:02.311Z,9.18
2019-02-25T01:51:17.582Z,8.50
2019-02-25T02:03:06.846Z,6.47
2019-02-25T02:08:23.695Z,6.87
2019-02-25T02:13:52.656Z,7.07
2019-02-25T02:18:58.968Z,7.20
2019-02-25T02:24:03.907Z,7.28
2019-02-25T02:29:35.619Z,6.70
2019-02-25T02:34:40.434Z,6.75
2019-02-25T02:45:44.535Z,7.17
2019-02-25T02:50:49.057Z,7.33
2019-02-25T02:55:53.564Z,7.10
2019-02-25T03:00:57.982Z,7.00
2019-02-25T03:06:21.711Z,7.62
2019-02-25T03:11:36.071Z,7.05
2019-02-25T03:16:45.716Z,7.20
2019-02-25T03:21:50.073Z,7.28
2019-02-25T03:26:54.423Z,7.70
2019-02-25T03:31:59.802Z,7.12
2019-02-25T03:37:04.120Z,7.90
2019-02-25T03:42:08.585Z,7.20
2019-02-25T03:47:12.790Z,7.50
2019-02-25T03:52:17.127Z,7.65
2019-02-25T03:57:21.390Z,7.70
2019-02-25T04:02:25.972Z,7.37
2019-02-25T04:07:30.453Z,6.80
2019-02-25T10:15:05.121Z,6.97
2019-02-25T10:20:34.214Z,6.50
2019-02-25T10:25:46.194Z,6.47
2019-02-25T10:30:53.306Z,6.35
2019-02-25T10:35:58.208Z,6.00
2019-02-25T10:41:19.679Z,5.95
2019-02-25T10:46:33.152Z,6.13
2019-02-25T10:51:43.973Z,6.20
2019-02-25T10:56:59.453Z,7.00
2019-02-25T11:02:04.543Z,5.70
2019-02-25T11:07:09.762Z,6.30
2019-02-25T11:12:29.616Z,6.20
2019-02-25T11:17:34.161Z,5.90
2019-02-25T11:22:39.821Z,6.77
2019-02-25T11:27:44.846Z,6.30
2019-02-25T11:32:51.113Z,6.25
2019-02-25T11:37:57.065Z,6.20
2019-02-25T11:43:01.314Z,6.20
2019-02-25T11:48:06.134Z,6.20
2019-02-25T11:53:10.605Z,6.17
2019-02-25T11:58:15.172Z,5.97
2019-02-25T12:03:19.604Z,6.25
2019-02-25T12:08:47.759Z,6.37
2019-02-25T12:13:54.494Z,6.60
2019-02-25T12:18:59.012Z,6.60
2019-02-25T12:24:03.851Z,6.80
2019-02-25T12:29:10.793Z,6.90
2019-02-25T12:34:26.392Z,5.90
2019-02-25T12:39:33.948Z,6.70
2019-02-25T12:44:38.590Z,6.35
2019-02-25T12:49:43.134Z,5.95
2019-02-25T12:54:47.762Z,5.78
2019-02-25T12:59:52.536Z,5.87
2019-02-25T13:04:58.157Z,5.90
2019-02-25T13:10:03.382Z,6.20
2019-02-25T13:15:15.729Z,6.40
2019-02-25T13:20:50.859Z,5.35
2019-02-25T13:25:55.891Z,5.95
2019-02-25T13:31:13.239Z,5.80
2019-02-25T13:36:24.129Z,5.87
2019-02-25T13:41:28.712Z,5.62
2019-02-25T13:46:37.522Z,5.20
2019-02-25T13:51:49.465Z,5.70
2019-02-25T13:57:01.837Z,5.60
2019-02-25T14:02:10.899Z,5.22
2019-02-25T14:07:21.283Z,6.00
2019-02-25T14:12:31.488Z,5.53
2019-02-25T14:17:48.657Z,6.05
2019-02-25T14:23:08.915Z,5.17
2019-02-25T14:28:21.812Z,4.90
2019-02-25T14:34:24.611Z,5.00
2019-02-25T14:39:30.410Z,5.10
2019-02-25T14:49:58.511Z,5.50
2019-02-25T14:55:36.441Z,5.00
2019-02-25T15:01:12.722Z,5.20
2019-02-25T15:06:19.514Z,5.28
2019-02-25T15:11:25.997Z,5.20
2019-02-25T15:16:37.337Z,5.20
2019-02-25T15:21:47.372Z,5.50
2019-02-25T15:26:57.586Z,5.47
2019-02-25T15:32:03.716Z,5.10
2019-02-25T15:37:12.207Z,5.30
2019-02-25T15:42:30.089Z,5.30
2019-02-25T15:47:39.210Z,5.03
2019-02-25T15:52:48.464Z,4.90
2019-02-25T15:57:59.888Z,4.83
2019-02-25T16:03:16.150Z,5.15
2019-02-25T16:08:28.828Z,5.40
2019-02-25T23:22:12.229Z,11.35
2019-02-25T23:40:07.169Z,10.00
2019-02-25T23:45:12.975Z,10.82
2019-02-25T23:50:21.907Z,10.57
2019-02-25T23:55:27.797Z,8.93
